Time;durP1;ratioP1;P1;durP2;ratioP2;P2;SDS_P1;SDS_P2;PMS_P1;PMS_P2;Temp;Humidity;BMP_temperature;BMP_pressure;BME280_temperature;BME280_humidity;BME280_pressure;Samples;Min_cycle;Max_cycle;Signal;HPM_P1;HPM_P2
2023/12/02 00:01:32;;;;;;;25.90;14.45;;;;;;;;;;5053334;28;20032;-63
2023/12/02 00:03:58;;;;;;;24.85;14.23;;;;;;;;;;5051989;28;20224;-63
2023/12/02 00:06:23;;;;;;;23.80;13.80;;;;;;;;;;5053324;28;20025;-63
2023/12/02 00:08:48;;;;;;;24.95;14.60;;;;;;;;;;5045468;28;20045;-63
2023/12/02 00:11:13;;;;;;;24.48;14.20;;;;;;;;;;5035672;28;20017;-63
2023/12/02 00:13:38;;;;;;;24.20;15.15;;;;;;;;;;5032764;28;20037;-63
2023/12/02 00:16:05;;;;;;;23.65;13.82;;;;;;;;;;5023657;28;20098;-63
2023/12/02 00:18:30;;;;;;;23.85;14.00;;;;;;;;;;5026791;28;20052;-64
2023/12/02 00:20:56;;;;;;;26.20;14.77;;;;;;;;;;5039650;28;20923;-63
2023/12/02 00:23:21;;;;;;;23.95;14.50;;;;;;;;;;5023343;28;20911;-64
2023/12/02 00:25:46;;;;;;;24.02;14.40;;;;;;;;;;5018108;28;20032;-64
2023/12/02 00:28:11;;;;;;;27.45;15.77;;;;;;;;;;5022757;28;20086;-64
2023/12/02 00:30:37;;;;;;;27.23;15.45;;;;;;;;;;5018567;28;20036;-64
2023/12/02 00:33:02;;;;;;;26.50;14.95;;;;;;;;;;5013843;28;20185;-64
2023/12/02 00:35:27;;;;;;;24.40;14.65;;;;;;;;;;5031436;28;20078;-64
2023/12/02 00:37:52;;;;;;;23.38;14.25;;;;;;;;;;5033449;28;20361;-63
2023/12/02 00:40:18;;;;;;;25.15;15.73;;;;;;;;;;5018851;28;20972;-64
2023/12/02 00:42:43;;;;;;;25.90;15.80;;;;;;;;;;5045607;28;20059;-63
2023/12/02 00:45:08;;;;;;;32.33;14.98;;;;;;;;;;5056397;28;20020;-63
2023/12/02 00:47:34;;;;;;;24.33;14.77;;;;;;;;;;5048173;28;20122;-63
2023/12/02 00:49:59;;;;;;;25.35;15.07;;;;;;;;;;5052323;28;20029;-63
2023/12/02 00:52:24;;;;;;;25.05;15.55;;;;;;;;;;5052599;28;20029;-64
2023/12/02 00:54:50;;;;;;;21.80;14.27;;;;;;;;;;5054503;28;20081;-64
2023/12/02 00:57:15;;;;;;;28.20;16.73;;;;;;;;;;5052353;28;20029;-65
2023/12/02 00:59:40;;;;;;;25.77;15.30;;;;;;;;;;5055370;28;20021;-64
2023/12/02 01:02:06;;;;;;;27.42;16.40;;;;;;;;;;5052017;28;20017;-64
2023/12/02 01:04:32;;;;;;;27.33;16.30;;;;;;;;;;5056687;28;20033;-64
2023/12/02 01:06:57;;;;;;;24.48;16.17;;;;;;;;;;5057472;28;20032;-64
2023/12/02 01:09:22;;;;;;;26.70;17.33;;;;;;;;;;5056981;28;20028;-64
2023/12/02 01:11:47;;;;;;;27.50;16.92;;;;;;;;;;5063517;28;20025;-64
2023/12/02 01:14:13;;;;;;;27.38;16.85;;;;;;;;;;5052068;28;20170;-63
2023/12/02 01:16:38;;;;;;;32.55;17.80;;;;;;;;;;5052212;28;20064;-63
2023/12/02 01:19:03;;;;;;;31.80;18.35;;;;;;;;;;5030546;28;20025;-64
2023/12/02 01:21:28;;;;;;;31.45;18.42;;;;;;;;;;5024382;28;20295;-64
2023/12/02 01:23:54;;;;;;;29.40;17.60;;;;;;;;;;5026466;28;20141;-64
2023/12/02 01:26:19;;;;;;;30.43;16.70;;;;;;;;;;5019419;28;20120;-64
2023/12/02 01:28:44;;;;;;;27.95;16.30;;;;;;;;;;5030489;28;20291;-63
2023/12/02 01:31:09;;;;;;;29.38;16.15;;;;;;;;;;5030174;28;20031;-64
2023/12/02 01:33:35;;;;;;;28.15;15.82;;;;;;;;;;5031757;28;20027;-64
2023/12/02 01:36:00;;;;;;;23.67;14.73;;;;;;;;;;5031183;28;20021;-64
2023/12/02 01:38:25;;;;;;;29.70;14.95;;;;;;;;;;5030789;28;20036;-64
2023/12/02 01:40:50;;;;;;;27.13;14.63;;;;;;;;;;5046345;28;20027;-64
2023/12/02 01:43:25;;;;;;;25.17;13.20;;;;;;;;;;5051603;28;20037;-64
2023/12/02 01:45:51;;;;;;;22.08;12.98;;;;;;;;;;5052059;28;20066;-64
2023/12/02 01:48:17;;;;;;;20.45;13.13;;;;;;;;;;5051685;28;20108;-64
2023/12/02 01:50:42;;;;;;;21.55;13.60;;;;;;;;;;5051675;28;20025;-63
2023/12/02 01:53:07;;;;;;;24.80;13.48;;;;;;;;;;5059576;28;20032;-63
2023/12/02 01:55:33;;;;;;;22.85;14.40;;;;;;;;;;5061541;28;20434;-64
2023/12/02 01:57:58;;;;;;;23.63;13.45;;;;;;;;;;5051436;28;20398;-63
2023/12/02 02:00:23;;;;;;;19.40;12.75;;;;;;;;;;5054248;28;20061;-64
2023/12/02 02:02:48;;;;;;;26.83;13.35;;;;;;;;;;5058557;28;20056;-64
2023/12/02 02:05:14;;;;;;;21.95;12.23;;;;;;;;;;5052443;28;20104;-64
2023/12/02 02:07:39;;;;;;;22.48;12.77;;;;;;;;;;5051251;28;20109;-64
2023/12/02 02:10:04;;;;;;;23.75;13.32;;;;;;;;;;5064523;28;20051;-64
2023/12/02 02:12:30;;;;;;;25.23;13.30;;;;;;;;;;5051015;28;20383;-64
2023/12/02 02:14:55;;;;;;;23.15;13.23;;;;;;;;;;5057049;28;20027;-64
2023/12/02 02:17:20;;;;;;;24.95;13.65;;;;;;;;;;5056199;28;20056;-64
2023/12/02 02:19:45;;;;;;;26.05;14.32;;;;;;;;;;5051473;28;20033;-64
2023/12/02 02:22:11;;;;;;;21.60;13.73;;;;;;;;;;5062086;28;20032;-64
2023/12/02 02:24:37;;;;;;;22.13;13.77;;;;;;;;;;5053174;28;20025;-64
2023/12/02 02:27:02;;;;;;;24.38;13.57;;;;;;;;;;5057423;28;20024;-64
2023/12/02 02:29:27;;;;;;;24.33;12.93;;;;;;;;;;5051311;28;20539;-64
2023/12/02 02:31:52;;;;;;;23.02;13.82;;;;;;;;;;5050931;28;20582;-64
2023/12/02 02:34:18;;;;;;;23.88;13.10;;;;;;;;;;5059497;28;20415;-64
2023/12/02 02:36:43;;;;;;;23.75;13.63;;;;;;;;;;5050874;28;20123;-64
2023/12/02 02:39:09;;;;;;;20.80;13.20;;;;;;;;;;5050993;28;20024;-65
2023/12/02 02:41:35;;;;;;;24.13;13.75;;;;;;;;;;5051363;28;20375;-64
2023/12/02 02:44:01;;;;;;;27.42;13.18;;;;;;;;;;5061814;28;20029;-64
2023/12/02 02:46:26;;;;;;;22.95;12.18;;;;;;;;;;5051020;28;20075;-64
2023/12/02 02:48:51;;;;;;;19.65;12.20;;;;;;;;;;5051001;28;20468;-64
2023/12/02 02:51:17;;;;;;;21.27;11.93;;;;;;;;;;5051377;28;20104;-65
2023/12/02 02:53:42;;;;;;;22.42;13.93;;;;;;;;;;5050699;28;20057;-64
2023/12/02 02:56:09;;;;;;;26.73;15.00;;;;;;;;;;5062121;28;20028;-65
2023/12/02 02:58:36;;;;;;;25.00;12.90;;;;;;;;;;5051838;28;20037;-64
2023/12/02 03:01:02;;;;;;;27.02;13.98;;;;;;;;;;5040005;28;20101;-64
2023/12/02 03:03:28;;;;;;;23.58;13.07;;;;;;;;;;5051550;28;20476;-65
2023/12/02 03:05:53;;;;;;;23.27;13.05;;;;;;;;;;5014385;28;20029;-64
2023/12/02 03:08:18;;;;;;;22.33;11.63;;;;;;;;;;5063510;28;20031;-64
2023/12/02 03:10:47;;;;;;;23.98;12.88;;;;;;;;;;5062012;28;20012;-64
2023/12/02 03:13:12;;;;;;;22.67;11.13;;;;;;;;;;5050992;28;20029;-64
2023/12/02 03:15:37;;;;;;;23.70;12.40;;;;;;;;;;5050594;28;20371;-64
2023/12/02 03:18:03;;;;;;;22.08;12.35;;;;;;;;;;5050033;28;20052;-65
2023/12/02 03:20:29;;;;;;;22.80;13.15;;;;;;;;;;5058294;28;20085;-64
2023/12/02 03:22:54;;;;;;;24.95;13.63;;;;;;;;;;5051677;28;20037;-64
2023/12/02 03:25:19;;;;;;;23.73;12.80;;;;;;;;;;5067201;28;20017;-64
2023/12/02 03:27:44;;;;;;;19.65;11.80;;;;;;;;;;5051960;28;20031;-64
2023/12/02 03:30:10;;;;;;;16.88;10.45;;;;;;;;;;5050799;28;20025;-64
2023/12/02 03:32:38;;;;;;;23.85;12.68;;;;;;;;;;5052700;28;20104;-65
2023/12/02 03:35:03;;;;;;;19.02;10.65;;;;;;;;;;5052019;28;20025;-65
2023/12/02 03:37:29;;;;;;;25.55;12.82;;;;;;;;;;5051066;28;20025;-65
2023/12/02 03:39:54;;;;;;;20.15;12.65;;;;;;;;;;5059653;28;20025;-64
2023/12/02 03:42:19;;;;;;;21.92;11.43;;;;;;;;;;5055278;28;20017;-64
2023/12/02 03:44:45;;;;;;;21.90;11.27;;;;;;;;;;5053961;28;20112;-64
2023/12/02 03:47:10;;;;;;;22.75;12.52;;;;;;;;;;5053571;28;20024;-64
2023/12/02 03:49:35;;;;;;;21.63;12.27;;;;;;;;;;5054036;28;20036;-64
2023/12/02 03:52:00;;;;;;;18.80;11.73;;;;;;;;;;5059936;28;20029;-64
2023/12/02 03:54:26;;;;;;;21.63;11.27;;;;;;;;;;5053791;28;20021;-64
2023/12/02 03:56:51;;;;;;;17.00;10.73;;;;;;;;;;5053086;28;20096;-65
2023/12/02 03:59:16;;;;;;;21.23;12.68;;;;;;;;;;5063073;28;20112;-65
2023/12/02 04:01:42;;;;;;;22.50;12.60;;;;;;;;;;5053332;28;20381;-65
2023/12/02 04:04:07;;;;;;;22.33;12.25;;;;;;;;;;5053038;28;20040;-64
2023/12/02 04:06:32;;;;;;;24.08;12.10;;;;;;;;;;5053061;28;20032;-65
2023/12/02 04:08:58;;;;;;;26.52;14.05;;;;;;;;;;5053302;28;20036;-64
2023/12/02 04:11:23;;;;;;;23.65;12.80;;;;;;;;;;5055524;28;20430;-64
2023/12/02 04:13:48;;;;;;;20.65;11.43;;;;;;;;;;5053481;28;20079;-64
2023/12/02 04:16:13;;;;;;;22.42;12.63;;;;;;;;;;5054080;28;20025;-65
2023/12/02 04:18:38;;;;;;;24.95;13.15;;;;;;;;;;5053826;28;20360;-65
2023/12/02 04:21:04;;;;;;;24.27;11.95;;;;;;;;;;5053072;28;20438;-65
2023/12/02 04:23:30;;;;;;;24.40;12.15;;;;;;;;;;5053240;28;20032;-65
2023/12/02 04:25:55;;;;;;;22.15;12.23;;;;;;;;;;5053415;28;20033;-65
2023/12/02 04:28:20;;;;;;;25.42;11.27;;;;;;;;;;5053222;28;20475;-65
2023/12/02 04:30:45;;;;;;;19.85;12.05;;;;;;;;;;5053054;28;20095;-64
2023/12/02 04:33:11;;;;;;;20.98;11.75;;;;;;;;;;5059312;28;20016;-64
2023/12/02 04:35:36;;;;;;;24.00;12.45;;;;;;;;;;5058241;28;20021;-64
2023/12/02 04:38:04;;;;;;;20.73;10.73;;;;;;;;;;5063077;28;20372;-65
2023/12/02 04:40:30;;;;;;;18.10;10.65;;;;;;;;;;5053874;28;20039;-65
2023/12/02 04:42:55;;;;;;;20.05;11.50;;;;;;;;;;5053100;28;20029;-64
2023/12/02 04:45:20;;;;;;;24.27;11.77;;;;;;;;;;5057620;28;20464;-64
2023/12/02 04:47:45;;;;;;;18.30;11.25;;;;;;;;;;5052407;28;20279;-65
2023/12/02 04:50:11;;;;;;;19.95;11.75;;;;;;;;;;5052270;28;20032;-65
2023/12/02 04:52:36;;;;;;;22.90;11.32;;;;;;;;;;5053146;28;20047;-65
2023/12/02 04:55:02;;;;;;;21.38;11.52;;;;;;;;;;5052689;28;20032;-65
2023/12/02 04:57:27;;;;;;;20.23;11.55;;;;;;;;;;5056513;28;20032;-65
2023/12/02 04:59:52;;;;;;;22.35;11.43;;;;;;;;;;5061352;28;20025;-64
2023/12/02 05:02:21;;;;;;;19.88;11.70;;;;;;;;;;5052258;28;20039;-65
2023/12/02 05:04:46;;;;;;;18.75;10.75;;;;;;;;;;5062562;28;20085;-65
2023/12/02 05:07:12;;;;;;;20.38;11.35;;;;;;;;;;5056061;28;20041;-65
2023/12/02 05:09:37;;;;;;;18.65;10.63;;;;;;;;;;5052620;28;20426;-65
2023/12/02 05:12:02;;;;;;;21.23;11.18;;;;;;;;;;5059994;28;20047;-65
2023/12/02 05:14:27;;;;;;;18.70;10.82;;;;;;;;;;5054155;28;20052;-64
2023/12/02 05:16:53;;;;;;;21.42;11.43;;;;;;;;;;5052059;28;20025;-65
2023/12/02 05:19:18;;;;;;;22.48;12.27;;;;;;;;;;5053910;28;20029;-65
2023/12/02 05:21:43;;;;;;;24.33;12.32;;;;;;;;;;5052216;28;20040;-65
2023/12/02 05:24:08;;;;;;;23.52;12.38;;;;;;;;;;5052008;28;20033;-64
2023/12/02 05:26:34;;;;;;;20.85;11.20;;;;;;;;;;5051956;28;20025;-64
2023/12/02 05:29:02;;;;;;;20.92;11.20;;;;;;;;;;5055057;28;20482;-65
2023/12/02 05:31:28;;;;;;;26.85;13.68;;;;;;;;;;5052540;28;20056;-64
2023/12/02 05:33:53;;;;;;;21.65;12.05;;;;;;;;;;5048214;28;20055;-65
2023/12/02 05:36:18;;;;;;;19.67;10.20;;;;;;;;;;5051087;28;20027;-65
2023/12/02 05:38:43;;;;;;;19.73;11.48;;;;;;;;;;5052359;28;20096;-65
2023/12/02 05:41:09;;;;;;;19.65;11.18;;;;;;;;;;5052772;28;20060;-64
2023/12/02 05:43:34;;;;;;;20.23;10.32;;;;;;;;;;5051895;28;20079;-65
2023/12/02 05:46:00;;;;;;;20.55;11.95;;;;;;;;;;5053756;28;20025;-65
2023/12/02 05:48:25;;;;;;;22.15;13.35;;;;;;;;;;5052292;28;20029;-65
2023/12/02 05:50:50;;;;;;;21.80;11.65;;;;;;;;;;5051495;28;20111;-65
2023/12/02 05:53:16;;;;;;;18.42;10.73;;;;;;;;;;5051888;28;20108;-65
2023/12/02 05:55:41;;;;;;;20.63;11.43;;;;;;;;;;5051930;28;20029;-64
2023/12/02 05:58:06;;;;;;;18.20;10.75;;;;;;;;;;5051824;28;20025;-65
2023/12/02 06:00:32;;;;;;;21.35;10.85;;;;;;;;;;5050814;28;20021;-65
2023/12/02 06:02:57;;;;;;;18.23;10.60;;;;;;;;;;5051250;28;20033;-65
2023/12/02 06:05:22;;;;;;;20.20;11.45;;;;;;;;;;5057925;28;20089;-65
2023/12/02 06:07:48;;;;;;;21.63;11.68;;;;;;;;;;5051946;28;20032;-65
2023/12/02 06:10:13;;;;;;;22.20;11.13;;;;;;;;;;5057554;28;20053;-65
2023/12/02 06:12:38;;;;;;;22.05;11.85;;;;;;;;;;5057952;28;20075;-65
2023/12/02 06:15:04;;;;;;;20.60;12.05;;;;;;;;;;5066069;28;20032;-65
2023/12/02 06:17:29;;;;;;;18.95;11.35;;;;;;;;;;5050483;28;20054;-65
2023/12/02 06:19:54;;;;;;;21.25;11.80;;;;;;;;;;5051582;28;20033;-65
2023/12/02 06:22:20;;;;;;;20.63;12.65;;;;;;;;;;5034819;28;20460;-65
2023/12/02 06:24:45;;;;;;;20.02;11.63;;;;;;;;;;5053163;28;20033;-65
2023/12/02 06:27:10;;;;;;;20.08;11.43;;;;;;;;;;5058010;28;20028;-65
2023/12/02 06:29:35;;;;;;;18.98;11.10;;;;;;;;;;5068533;28;20028;-66
2023/12/02 06:32:00;;;;;;;21.35;12.38;;;;;;;;;;5051009;28;20024;-65
2023/12/02 06:34:26;;;;;;;20.00;11.07;;;;;;;;;;5062815;28;20067;-65
2023/12/02 06:36:51;;;;;;;20.55;10.98;;;;;;;;;;5055436;28;20032;-65
2023/12/02 06:39:16;;;;;;;20.83;11.02;;;;;;;;;;5051289;28;20029;-65
2023/12/02 06:41:41;;;;;;;20.30;11.38;;;;;;;;;;5051177;28;20037;-65
2023/12/02 06:44:07;;;;;;;18.65;10.68;;;;;;;;;;5048870;28;20107;-65
2023/12/02 06:46:32;;;;;;;17.27;9.20;;;;;;;;;;5051285;28;20025;-65
2023/12/02 06:48:58;;;;;;;20.10;12.35;;;;;;;;;;5063659;28;20421;-65
2023/12/02 06:51:28;;;;;;;22.60;10.48;;;;;;;;;;5049138;28;20020;-65
2023/12/02 06:53:53;;;;;;;22.02;12.02;;;;;;;;;;5007144;28;20029;-65
2023/12/02 06:56:21;;;;;;;19.08;10.00;;;;;;;;;;5037164;28;20479;-65
2023/12/02 06:58:47;;;;;;;18.85;10.55;;;;;;;;;;5050617;28;20021;-65
2023/12/02 07:01:21;;;;;;;20.15;11.32;;;;;;;;;;5051002;28;20085;-65
2023/12/02 07:03:46;;;;;;;21.23;11.45;;;;;;;;;;5058499;28;20032;-65
2023/12/02 07:06:11;;;;;;;19.60;11.55;;;;;;;;;;5051017;28;20099;-65
2023/12/02 07:08:37;;;;;;;21.75;11.25;;;;;;;;;;5052560;28;20234;-65
2023/12/02 07:11:03;;;;;;;21.20;10.95;;;;;;;;;;5057456;28;20044;-64
2023/12/02 07:13:29;;;;;;;23.30;12.00;;;;;;;;;;5064617;28;20055;-65
2023/12/02 07:15:54;;;;;;;20.65;12.32;;;;;;;;;;5053003;28;20033;-65
2023/12/02 07:18:19;;;;;;;24.40;14.75;;;;;;;;;;5067265;28;20035;-65
2023/12/02 07:20:44;;;;;;;26.20;14.85;;;;;;;;;;5054392;28;20029;-64
2023/12/02 07:23:10;;;;;;;18.40;11.07;;;;;;;;;;5053423;28;20020;-65
2023/12/02 07:25:35;;;;;;;19.67;11.43;;;;;;;;;;5053595;28;20123;-64
2023/12/02 07:28:00;;;;;;;18.05;10.55;;;;;;;;;;5058358;28;20078;-64
2023/12/02 07:30:25;;;;;;;16.85;10.73;;;;;;;;;;5059244;28;20070;-65
2023/12/02 07:32:50;;;;;;;20.27;10.70;;;;;;;;;;5059064;28;20056;-64
2023/12/02 07:35:16;;;;;;;19.23;10.23;;;;;;;;;;5054459;28;20079;-64
2023/12/02 07:37:43;;;;;;;20.58;11.35;;;;;;;;;;5058980;28;20102;-64
2023/12/02 07:40:09;;;;;;;20.77;11.32;;;;;;;;;;5053401;28;20541;-64
2023/12/02 07:42:34;;;;;;;24.00;12.00;;;;;;;;;;5066276;28;20025;-64
2023/12/02 07:44:59;;;;;;;22.55;11.88;;;;;;;;;;5065586;28;20052;-64
2023/12/02 07:47:24;;;;;;;22.25;11.30;;;;;;;;;;5053995;28;20397;-64
2023/12/02 07:49:49;;;;;;;23.40;11.45;;;;;;;;;;5052909;28;20356;-64
2023/12/02 07:52:15;;;;;;;20.73;11.65;;;;;;;;;;5053987;28;20021;-64
2023/12/02 07:54:40;;;;;;;28.48;13.48;;;;;;;;;;5016761;28;20052;-64
2023/12/02 07:57:05;;;;;;;24.83;12.60;;;;;;;;;;5011334;28;20123;-64
2023/12/02 07:59:30;;;;;;;21.73;11.57;;;;;;;;;;5025652;28;20889;-64
2023/12/02 08:01:56;;;;;;;25.67;11.70;;;;;;;;;;5027321;28;20039;-64
2023/12/02 08:04:21;;;;;;;22.05;12.10;;;;;;;;;;5017280;28;20206;-64
2023/12/02 08:06:46;;;;;;;28.27;13.77;;;;;;;;;;5052081;28;20071;-64
2023/12/02 08:09:14;;;;;;;25.83;11.98;;;;;;;;;;5054391;28;20533;-64
2023/12/02 08:11:40;;;;;;;20.42;11.73;;;;;;;;;;5061134;28;20029;-64
2023/12/02 08:14:06;;;;;;;24.67;12.02;;;;;;;;;;5052962;28;20078;-64
2023/12/02 08:16:31;;;;;;;25.00;12.30;;;;;;;;;;5053060;28;20523;-64
2023/12/02 08:18:56;;;;;;;21.98;11.40;;;;;;;;;;5053398;28;20017;-64
2023/12/02 08:21:21;;;;;;;20.95;11.85;;;;;;;;;;5057065;28;20031;-64
2023/12/02 08:23:46;;;;;;;22.80;11.77;;;;;;;;;;5054426;28;20025;-64
2023/12/02 08:26:12;;;;;;;23.98;12.25;;;;;;;;;;5060565;28;20051;-63
2023/12/02 08:28:37;;;;;;;21.35;11.50;;;;;;;;;;5054450;28;20096;-64
2023/12/02 08:31:02;;;;;;;29.10;13.88;;;;;;;;;;5047775;28;20021;-64
2023/12/02 08:33:28;;;;;;;22.10;12.10;;;;;;;;;;5065307;28;20082;-64
2023/12/02 08:35:53;;;;;;;22.63;12.70;;;;;;;;;;5058764;28;20433;-64
2023/12/02 08:38:18;;;;;;;22.63;12.77;;;;;;;;;;5054860;28;20619;-64
2023/12/02 08:40:43;;;;;;;21.02;12.30;;;;;;;;;;5055188;28;20412;-64
2023/12/02 08:43:09;;;;;;;24.60;14.20;;;;;;;;;;5058488;28;20446;-64
2023/12/02 08:45:34;;;;;;;27.63;12.23;;;;;;;;;;5061936;28;20036;-62
2023/12/02 08:48:00;;;;;;;23.02;13.20;;;;;;;;;;5057837;28;20100;-63
2023/12/02 08:50:25;;;;;;;22.13;12.98;;;;;;;;;;5050575;28;20029;-62
2023/12/02 08:52:51;;;;;;;23.48;13.05;;;;;;;;;;5018925;28;20013;-63
2023/12/02 08:55:16;;;;;;;22.15;12.20;;;;;;;;;;5052525;28;20044;-63
2023/12/02 08:57:41;;;;;;;24.40;12.65;;;;;;;;;;5050797;28;20048;-64
2023/12/02 09:00:07;;;;;;;21.70;12.73;;;;;;;;;;5052674;28;20074;-63
2023/12/02 09:02:33;;;;;;;25.10;13.48;;;;;;;;;;5054062;28;20162;-63
2023/12/02 09:05:01;;;;;;;19.95;11.23;;;;;;;;;;5052010;28;20032;-63
2023/12/02 09:07:27;;;;;;;21.90;13.57;;;;;;;;;;5052515;28;20032;-63
2023/12/02 09:09:52;;;;;;;23.42;12.32;;;;;;;;;;5052042;28;20024;-63
2023/12/02 09:12:17;;;;;;;23.20;12.77;;;;;;;;;;5052310;28;20057;-63
2023/12/02 09:14:43;;;;;;;21.67;10.98;;;;;;;;;;5052227;28;20029;-64
2023/12/02 09:17:28;;;;;;;21.70;12.52;;;;;;;;;;5052183;28;20037;-63
2023/12/02 09:19:54;;;;;;;20.88;10.77;;;;;;;;;;5057963;28;20042;-63
2023/12/02 09:22:30;;;;;;;21.52;10.77;;;;;;;;;;5028072;28;20157;-63
2023/12/02 09:24:56;;;;;;;20.20;11.27;;;;;;;;;;5011050;28;20025;-64
2023/12/02 09:27:39;;;;;;;23.38;12.10;;;;;;;;;;5045894;28;20368;-63
2023/12/02 09:30:06;;;;;;;22.95;10.93;;;;;;;;;;5063020;28;20086;-63
2023/12/02 09:32:44;;;;;;;18.88;11.35;;;;;;;;;;5056961;28;20033;-63
2023/12/02 09:35:09;;;;;;;20.35;11.30;;;;;;;;;;5052446;28;20029;-63
2023/12/02 09:37:46;;;;;;;20.55;11.88;;;;;;;;;;5059160;28;20526;-64
2023/12/02 09:40:28;;;;;;;21.60;11.88;;;;;;;;;;5058117;28;20012;-63
2023/12/02 09:42:55;;;;;;;23.30;13.20;;;;;;;;;;5060377;28;20050;-63
2023/12/02 09:45:21;;;;;;;21.75;11.25;;;;;;;;;;5055503;28;20119;-63
2023/12/02 09:47:48;;;;;;;20.35;12.18;;;;;;;;;;5050561;28;20028;-63
2023/12/02 09:50:18;;;;;;;18.52;11.50;;;;;;;;;;5055347;28;20029;-63
2023/12/02 09:53:02;;;;;;;19.05;12.00;;;;;;;;;;5051569;28;20029;-63
2023/12/02 09:55:27;;;;;;;20.67;11.10;;;;;;;;;;5054390;28;20120;-63
2023/12/02 09:57:55;;;;;;;19.23;12.30;;;;;;;;;;5054387;28;20116;-65
2023/12/02 10:00:20;;;;;;;23.80;12.98;;;;;;;;;;5051520;28;20020;-64
2023/12/02 10:02:57;;;;;;;22.00;13.02;;;;;;;;;;5051322;28;20028;-64
2023/12/02 10:05:23;;;;;;;19.10;12.23;;;;;;;;;;5051620;28;20099;-65
2023/12/02 10:07:48;;;;;;;20.58;12.55;;;;;;;;;;5051570;28;20029;-63
2023/12/02 10:10:17;;;;;;;20.83;11.03;;;;;;;;;;5058495;28;20028;-62
2023/12/02 10:12:48;;;;;;;22.60;13.05;;;;;;;;;;5054170;28;20275;-64
2023/12/02 10:15:16;;;;;;;20.63;11.68;;;;;;;;;;5060318;28;20028;-64
2023/12/02 10:17:50;;;;;;;19.95;11.50;;;;;;;;;;5051035;28;20025;-62
2023/12/02 10:20:16;;;;;;;18.42;11.05;;;;;;;;;;5051607;28;20056;-62
2023/12/02 10:22:45;;;;;;;18.67;11.35;;;;;;;;;;5055674;28;20486;-64
2023/12/02 10:25:18;;;;;;;21.45;12.57;;;;;;;;;;5058576;28;20108;-64
2023/12/02 10:27:43;;;;;;;21.45;12.07;;;;;;;;;;5056947;28;20493;-64
2023/12/02 10:30:10;;;;;;;18.50;11.50;;;;;;;;;;5058028;28;20108;-64
2023/12/02 10:32:54;;;;;;;21.90;11.35;;;;;;;;;;5050934;28;20028;-64
2023/12/02 10:35:23;;;;;;;22.17;11.90;;;;;;;;;;5050699;28;20070;-64
2023/12/02 10:37:52;;;;;;;20.38;11.18;;;;;;;;;;5052031;28;20490;-64
2023/12/02 10:40:19;;;;;;;20.70;12.40;;;;;;;;;;5052783;28;20360;-64
2023/12/02 10:42:51;;;;;;;20.90;11.23;;;;;;;;;;5051543;28;20049;-64
2023/12/02 10:45:17;;;;;;;18.98;11.48;;;;;;;;;;5050934;28;20032;-64
2023/12/02 10:47:45;;;;;;;18.30;10.60;;;;;;;;;;5051782;28;20116;-64
2023/12/02 10:50:11;;;;;;;18.90;11.18;;;;;;;;;;5053592;28;20399;-65
2023/12/02 10:52:37;;;;;;;23.38;13.27;;;;;;;;;;5053786;28;20037;-64
2023/12/02 10:55:03;;;;;;;18.95;11.70;;;;;;;;;;5054893;28;20426;-65
2023/12/02 10:57:28;;;;;;;18.80;11.93;;;;;;;;;;5054072;28;20028;-64
2023/12/02 11:00:03;;;;;;;19.50;10.82;;;;;;;;;;5054715;28;20036;-65
2023/12/02 11:02:37;;;;;;;19.27;11.27;;;;;;;;;;5054669;28;20456;-65
2023/12/02 11:05:03;;;;;;;;;;;;;;;;;;5054617;28;20029;-63
2023/12/02 11:07:31;;;;;;;17.67;10.15;;;;;;;;;;5054260;28;19909;-65
2023/12/02 11:10:01;;;;;;;19.15;10.52;;;;;;;;;;5054613;28;20071;-64
2023/12/02 11:12:33;;;;;;;17.67;10.48;;;;;;;;;;5051693;28;20028;-65
2023/12/02 11:15:03;;;;;;;20.50;11.10;;;;;;;;;;5054359;28;20411;-61
2023/12/02 11:17:46;;;;;;;19.08;10.45;;;;;;;;;;5053576;28;20056;-66
2023/12/02 11:20:18;;;;;;;16.25;10.38;;;;;;;;;;5053519;28;20552;-69
2023/12/02 11:22:44;;;;;;;17.20;10.00;;;;;;;;;;5053236;28;20032;-68
2023/12/02 11:25:19;;;;;;;20.40;11.02;;;;;;;;;;5054212;28;20479;-72
2023/12/02 11:27:44;;;;;;;17.95;11.65;;;;;;;;;;5054329;28;20033;-72
2023/12/02 11:30:28;;;;;;;19.15;9.90;;;;;;;;;;5053408;28;20048;-72
2023/12/02 11:32:53;;;;;;;;;;;;;;;;;;5054465;28;20033;-71
2023/12/02 11:35:24;;;;;;;19.60;10.90;;;;;;;;;;5053631;28;20279;-67
2023/12/02 11:38:12;;;;;;;20.17;10.90;;;;;;;;;;5063332;28;20025;-67
2023/12/02 11:40:44;;;;;;;20.70;10.63;;;;;;;;;;5042710;28;20029;-68
2023/12/02 11:43:14;;;;;;;18.90;11.02;;;;;;;;;;5053513;28;20106;-71
2023/12/02 11:45:40;;;;;;;20.95;10.43;;;;;;;;;;5051421;28;20068;-69
2023/12/02 11:48:12;;;;;;;22.42;11.00;;;;;;;;;;5065382;28;20021;-69
2023/12/02 11:50:55;;;;;;;21.23;11.80;;;;;;;;;;5054686;28;20023;-69
2023/12/02 11:53:27;;;;;;;21.73;11.88;;;;;;;;;;5053615;28;20018;-65
2023/12/02 11:56:08;;;;;;;18.42;11.45;;;;;;;;;;5053462;28;20475;-65
2023/12/02 11:58:52;;;;;;;18.20;10.10;;;;;;;;;;5052989;28;20016;-65
2023/12/02 12:01:24;;;;;;;17.17;10.13;;;;;;;;;;5055137;28;20021;-65
2023/12/02 12:04:01;;;;;;;23.73;12.10;;;;;;;;;;5054503;28;20044;-65
2023/12/02 12:06:41;;;;;;;39.05;19.30;;;;;;;;;;5053585;28;20075;-65
2023/12/02 12:09:26;;;;;;;20.45;12.95;;;;;;;;;;5053598;28;20017;-65
2023/12/02 12:11:53;;;;;;;18.98;10.27;;;;;;;;;;5053849;28;20052;-65
2023/12/02 12:14:19;;;;;;;18.38;10.35;;;;;;;;;;5053102;28;21346;-65
2023/12/02 12:16:44;;;;;;;17.92;10.52;;;;;;;;;;5053094;28;20418;-65
2023/12/02 12:19:10;;;;;;;19.50;10.93;;;;;;;;;;5053267;28;20017;-65
2023/12/02 12:21:35;;;;;;;19.17;10.73;;;;;;;;;;5053521;28;20066;-65
2023/12/02 12:24:00;;;;;;;18.42;11.60;;;;;;;;;;5051937;28;20112;-66
2023/12/02 12:26:26;;;;;;;19.15;11.15;;;;;;;;;;5053015;28;20491;-65
2023/12/02 12:28:52;;;;;;;16.25;9.65;;;;;;;;;;5052737;28;20020;-66
2023/12/02 12:31:18;;;;;;;19.58;11.15;;;;;;;;;;5036443;28;20356;-65
2023/12/02 12:33:49;;;;;;;20.02;10.90;;;;;;;;;;5052560;28;20043;-65
2023/12/02 12:36:14;;;;;;;18.73;11.00;;;;;;;;;;5051849;28;20091;-65
2023/12/02 12:38:39;;;;;;;19.48;10.73;;;;;;;;;;5036655;28;20017;-64
2023/12/02 12:41:07;;;;;;;26.98;13.52;;;;;;;;;;5053240;28;20029;-65
2023/12/02 12:43:36;;;;;;;28.27;15.32;;;;;;;;;;5052771;28;20051;-65
2023/12/02 12:46:01;;;;;;;23.92;12.85;;;;;;;;;;5052272;28;20028;-65
2023/12/02 12:48:26;;;;;;;25.60;15.13;;;;;;;;;;5053120;28;20029;-65
2023/12/02 12:50:54;;;;;;;21.92;12.07;;;;;;;;;;5052770;28;20020;-65
2023/12/02 12:53:23;;;;;;;18.42;11.63;;;;;;;;;;5052895;28;20037;-65
2023/12/02 12:55:51;;;;;;;19.05;11.55;;;;;;;;;;5052537;28;20482;-65
2023/12/02 12:58:17;;;;;;;18.60;10.88;;;;;;;;;;5053416;28;20032;-65
2023/12/02 13:00:46;;;;;;;18.48;11.20;;;;;;;;;;5055880;28;20024;-65
2023/12/02 13:03:11;;;;;;;19.77;11.38;;;;;;;;;;5052261;28;20020;-65
2023/12/02 13:05:42;;;;;;;18.93;11.10;;;;;;;;;;5051915;28;20029;-65
2023/12/02 13:08:10;;;;;;;19.75;10.88;;;;;;;;;;5055063;28;20414;-65
2023/12/02 13:10:36;;;;;;;21.55;12.50;;;;;;;;;;5063176;28;20035;-65
2023/12/02 13:13:02;;;;;;;16.42;10.40;;;;;;;;;;5053388;28;20067;-65
2023/12/02 13:15:28;;;;;;;17.25;11.38;;;;;;;;;;5052483;28;20036;-65
2023/12/02 13:17:54;;;;;;;17.95;9.88;;;;;;;;;;5052015;28;20025;-65
2023/12/02 13:20:19;;;;;;;20.27;11.00;;;;;;;;;;5051577;28;20502;-66
2023/12/02 13:22:46;;;;;;;19.33;10.35;;;;;;;;;;5052356;28;20029;-65
2023/12/02 13:25:11;;;;;;;17.92;10.90;;;;;;;;;;5052137;28;20033;-65
2023/12/02 13:27:37;;;;;;;18.17;11.37;;;;;;;;;;5054529;28;20017;-65
2023/12/02 13:30:04;;;;;;;19.08;11.07;;;;;;;;;;5051435;28;20742;-65
2023/12/02 13:32:30;;;;;;;18.92;10.65;;;;;;;;;;5065241;28;20028;-65
2023/12/02 13:35:05;;;;;;;20.88;10.30;;;;;;;;;;5051758;28;20033;-64
2023/12/02 13:37:39;;;;;;;14.90;9.18;;;;;;;;;;5054537;28;20116;-65
2023/12/02 13:40:05;;;;;;;17.65;9.98;;;;;;;;;;5051956;28;20025;-65
2023/12/02 13:42:35;;;;;;;18.38;10.10;;;;;;;;;;5052083;28;20017;-65
2023/12/02 13:45:04;;;;;;;16.20;8.57;;;;;;;;;;5052849;28;20159;-65
2023/12/02 13:47:41;;;;;;;21.33;10.40;;;;;;;;;;5051141;28;20043;-65
2023/12/02 13:50:07;;;;;;;21.58;11.27;;;;;;;;;;5051565;28;20029;-65
2023/12/02 13:52:44;;;;;;;21.50;10.57;;;;;;;;;;5051238;28;20090;-65
2023/12/02 13:55:15;;;;;;;17.08;10.38;;;;;;;;;;5065922;28;20454;-65
2023/12/02 13:57:44;;;;;;;18.15;10.40;;;;;;;;;;5049502;28;20383;-65
2023/12/02 14:00:11;;;;;;;18.60;10.52;;;;;;;;;;5047018;28;20038;-65
2023/12/02 14:02:55;;;;;;;18.55;11.20;;;;;;;;;;5030974;28;20038;-65
2023/12/02 14:05:26;;;;;;;22.50;11.10;;;;;;;;;;5056591;28;20036;-65
2023/12/02 14:07:52;;;;;;;18.13;10.95;;;;;;;;;;5036101;28;20079;-65
2023/12/02 14:10:19;;;;;;;21.63;12.15;;;;;;;;;;5049197;28;20083;-65
2023/12/02 14:12:47;;;;;;;21.38;11.73;;;;;;;;;;5042608;28;21159;-65
2023/12/02 14:15:33;;;;;;;20.50;11.68;;;;;;;;;;5039803;28;20024;-64
2023/12/02 14:17:58;;;;;;;22.85;12.95;;;;;;;;;;5041801;28;20082;-65